Huvudsida
METAR-TAF:

METAR-TAF

Flygplatser :

Wonderboom Airport

Pretoria, Sydafrika

latitud: 25-39S, longitud: 028-13E, höjd: 1248 m

Aktuellt väderrapport

Denna rapport gjordes för 55 minuter sedan, klockan 18:00 UTC
Vind 3 kt från sydväst
Temperatur 8°C
Fuktighet 71%
Tryck 1027 hPa

METAR: FAWB 141800Z AUTO 22003KT //// // ////// 08/03 Q1027

Tid: 20:55 (18:55 UTC)

Väderprognos

Denna rapport gjordes för 9 timmar och 55 minuter sedan, klockan 09:00 UTC
Prognos gäller från 14 kl. 10 UTC till 14 kl. 18 UTC
Vind 3 kt varierande vindriktning
Sikt 10 km eller mer
Inga moln under 1 500 m eller inga cumulonimbus

TAF: FAWB 140900Z 1410/1418 VRB03KT CAVOK TX22/1413Z TN09/1418Z

Aktuella väderrapporter och prognoser från 4000 flygplatser (METAR- och TAF-rapporter).

De tillgängliga stationerna syns som gula och röda prickar på kartan.

För musen över prickarna för att se namnen på stationerna.

Klicka sedan för att få väderrapporter och prognoser.

För att ändra kartan: Klicka på de gröna knapparna med ett svart kors på för att zooma in; den gröna knappen med ett streck på för att zooma ut; eller på de gröna pilarna för angränsande kartor.


METAR-TAF: